Time;durP1;ratioP1;P1;durP2;ratioP2;P2;SDS_P1;SDS_P2;PMS_P1;PMS_P2;Temp;Humidity;BMP_temperature;BMP_pressure;BME280_temperature;BME280_humidity;BME280_pressure;Samples;Min_cycle;Max_cycle;Signal;HPM_P1;HPM_P2
2022/06/28 00:01:18;;;;;;;7.43;6.37;;;15.70;99.90;;;;;;5090018;28;20198;-83
2022/06/28 00:03:45;;;;;;;8.10;5.77;;;15.80;99.90;;;;;;5089972;28;20197;-83
2022/06/28 00:06:12;;;;;;;7.43;5.27;;;15.70;99.90;;;;;;5090230;28;21178;-83
2022/06/28 00:08:39;;;;;;;6.63;6.03;;;15.70;99.90;;;;;;5089386;28;20226;-83
2022/06/28 00:11:06;;;;;;;8.43;5.80;;;15.70;99.90;;;;;;5087799;28;20316;-83
2022/06/28 00:13:33;;;;;;;7.23;5.97;;;15.70;99.90;;;;;;5085707;28;20206;-83
2022/06/28 00:16:06;;;;;;;6.50;5.43;;;15.60;99.90;;;;;;5084835;28;20249;-82
2022/06/28 00:18:36;;;;;;;7.03;6.13;;;15.60;99.90;;;;;;5082017;28;20288;-83
2022/06/28 00:21:06;;;;;;;7.00;6.30;;;15.60;99.90;;;;;;5084706;28;20223;-83
2022/06/28 00:23:35;;;;;;;7.00;5.77;;;15.50;99.90;;;;;;5086151;28;20197;-83
2022/06/28 00:26:02;;;;;;;8.13;5.47;;;15.60;99.90;;;;;;5082104;28;20296;-82
2022/06/28 00:28:29;;;;;;;7.20;5.80;;;15.60;99.90;;;;;;5087812;28;20229;-83
2022/06/28 00:30:56;;;;;;;7.63;5.80;;;15.50;99.90;;;;;;5090280;28;21145;-83
2022/06/28 00:33:23;;;;;;;8.27;5.70;;;15.50;99.90;;;;;;5071955;28;20197;-83
2022/06/28 00:35:50;;;;;;;7.50;5.57;;;15.50;99.90;;;;;;5086974;28;20647;-82
2022/06/28 00:38:17;;;;;;;7.57;5.73;;;15.50;99.90;;;;;;5082728;28;20213;-83
2022/06/28 00:40:50;;;;;;;7.07;5.70;;;15.60;99.90;;;;;;5088313;28;20576;-83
2022/06/28 00:43:19;;;;;;;6.90;6.23;;;15.50;99.90;;;;;;5084429;28;20233;-83
2022/06/28 00:45:46;;;;;;;9.57;6.10;;;15.40;99.90;;;;;;5087436;28;20346;-83
2022/06/28 00:48:15;;;;;;;7.47;6.57;;;15.40;99.90;;;;;;5082407;28;20228;-83
2022/06/28 00:50:42;;;;;;;9.33;6.23;;;15.30;99.90;;;;;;5068912;28;20203;-83
2022/06/28 00:53:15;;;;;;;7.20;6.50;;;15.30;99.90;;;;;;5083153;28;20322;-84
2022/06/28 00:55:43;;;;;;;7.67;5.70;;;15.40;99.90;;;;;;5084429;28;20222;-83
2022/06/28 00:58:14;;;;;;;7.53;5.53;;;15.40;99.90;;;;;;5080970;28;20236;-84
2022/06/28 01:00:44;;;;;;;6.67;5.93;;;15.20;99.90;;;;;;5083759;28;20271;-83
2022/06/28 01:03:13;;;;;;;9.10;6.33;;;15.30;99.90;;;;;;5084039;28;20208;-83
2022/06/28 01:05:42;;;;;;;7.67;5.87;;;15.30;99.90;;;;;;5085584;28;20213;-83
2022/06/28 01:08:11;;;;;;;6.37;5.53;;;15.20;99.90;;;;;;5085482;28;20233;-82
2022/06/28 01:10:40;;;;;;;5.63;5.13;;;15.30;99.90;;;;;;5082238;28;20232;-83
2022/06/28 01:13:09;;;;;;;6.03;5.43;;;15.20;99.90;;;;;;5083414;28;20199;-82
2022/06/28 01:15:37;;;;;;;7.10;5.30;;;15.20;99.90;;;;;;5083000;28;20247;-82
2022/06/28 01:18:05;;;;;;;6.87;5.87;;;15.20;99.90;;;;;;5086034;28;20564;-82
2022/06/28 01:20:33;;;;;;;6.93;5.23;;;15.20;99.90;;;;;;5086540;28;20196;-82
2022/06/28 01:23:01;;;;;;;6.40;5.80;;;15.10;99.90;;;;;;5100086;27;20210;-82
2022/06/28 01:25:28;;;;;;;6.60;5.90;;;15.20;99.90;;;;;;5084935;28;20617;-82
2022/06/28 01:27:56;;;;;;;5.53;4.77;;;15.20;99.90;;;;;;5082803;28;20207;-82
2022/06/28 01:30:23;;;;;;;6.10;5.50;;;15.20;99.90;;;;;;5083990;28;20575;-83
2022/06/28 01:32:50;;;;;;;6.33;5.73;;;15.20;99.90;;;;;;5081917;28;20503;-82
2022/06/28 01:35:19;;;;;;;7.93;5.60;;;15.20;99.90;;;;;;5087015;28;20210;-82
2022/06/28 01:37:49;;;;;;;6.83;5.50;;;15.20;99.90;;;;;;5083541;28;20209;-83
2022/06/28 01:40:16;;;;;;;6.10;5.50;;;15.20;99.90;;;;;;5088028;28;20203;-83
2022/06/28 01:42:44;;;;;;;5.13;4.73;;;15.20;99.90;;;;;;5081509;28;20641;-83
2022/06/28 01:45:11;;;;;;;5.93;5.03;;;15.20;99.90;;;;;;5083475;28;20293;-83
2022/06/28 01:47:44;;;;;;;5.60;5.10;;;15.10;99.90;;;;;;5082010;28;20287;-82
2022/06/28 01:50:12;;;;;;;7.53;5.27;;;15.00;99.90;;;;;;5079614;28;20259;-82
2022/06/28 01:52:41;;;;;;;5.93;5.33;;;15.10;99.90;;;;;;5082440;28;20295;-82
2022/06/28 01:55:09;;;;;;;5.70;5.20;;;15.00;99.90;;;;;;5069225;28;20217;-82
2022/06/28 01:57:36;;;;;;;6.63;5.57;;;15.10;99.90;;;;;;5084482;28;20198;-82
2022/06/28 02:00:04;;;;;;;5.73;4.97;;;15.00;99.90;;;;;;5088416;28;20695;-82
2022/06/28 02:02:31;;;;;;;6.53;5.53;;;15.00;99.90;;;;;;5084490;28;20204;-83
2022/06/28 02:04:58;;;;;;;5.83;4.70;;;15.10;99.90;;;;;;5087917;28;20670;-82
2022/06/28 02:07:25;;;;;;;6.07;5.23;;;15.00;99.90;;;;;;5084624;28;20231;-83
2022/06/28 02:09:52;;;;;;;6.03;5.33;;;14.90;99.90;;;;;;5087251;28;20197;-82
2022/06/28 02:12:19;;;;;;;6.73;4.97;;;14.80;99.90;;;;;;5086829;28;20687;-82
2022/06/28 02:14:46;;;;;;;5.67;4.90;;;14.90;99.90;;;;;;5090095;28;20200;-82
2022/06/28 02:17:13;;;;;;;6.10;5.27;;;14.80;99.90;;;;;;5085607;28;20252;-83
2022/06/28 02:19:40;;;;;;;8.90;5.30;;;14.80;99.90;;;;;;5084030;28;20222;-82
2022/06/28 02:22:07;;;;;;;7.37;5.50;;;14.80;99.90;;;;;;5089495;28;20582;-82
2022/06/28 02:24:34;;;;;;;6.57;5.47;;;14.70;99.90;;;;;;5087848;28;20209;-82
2022/06/28 02:27:01;;;;;;;6.10;5.50;;;14.70;99.90;;;;;;5084906;28;20203;-83
2022/06/28 02:29:27;;;;;;;6.30;5.53;;;14.80;99.90;;;;;;5085040;28;20233;-83
2022/06/28 02:31:54;;;;;;;7.33;5.50;;;14.70;99.90;;;;;;5086264;28;20206;-82
2022/06/28 02:42:38;;;;;;;7.73;5.80;;;14.60;99.90;;;;;;5090317;28;20549;-83
2022/06/28 02:45:06;;;;;;;7.47;6.10;;;14.60;99.90;;;;;;5095078;28;20209;-82
2022/06/28 02:47:33;;;;;;;7.50;5.70;;;14.50;99.90;;;;;;5095060;28;21736;-82
2022/06/28 02:50:00;;;;;;;6.93;5.17;;;14.60;99.90;;;;;;5092337;28;20251;-83
2022/06/28 02:52:27;;;;;;;7.57;5.77;;;14.50;99.90;;;;;;5092759;28;20208;-82
2022/06/28 02:54:54;;;;;;;7.00;4.93;;;14.50;99.90;;;;;;5094824;28;20235;-83
2022/06/28 02:57:20;;;;;;;6.53;5.37;;;14.50;99.90;;;;;;5090340;28;20302;-82
2022/06/28 02:59:47;;;;;;;6.27;4.70;;;14.60;99.90;;;;;;5094333;28;20202;-83
2022/06/28 03:02:14;;;;;;;5.43;4.93;;;14.50;99.90;;;;;;5082733;28;20204;-82
2022/06/28 03:04:41;;;;;;;7.73;5.17;;;14.50;99.90;;;;;;5086630;28;20306;-82
2022/06/28 03:07:08;;;;;;;7.43;5.20;;;14.50;99.90;;;;;;5086152;28;20628;-82
2022/06/28 03:09:35;;;;;;;6.93;5.00;;;14.50;99.90;;;;;;5084703;28;20326;-82
2022/06/28 03:12:04;;;;;;;6.10;4.80;;;14.50;99.90;;;;;;5078719;28;20217;-82
2022/06/28 03:14:32;;;;;;;6.23;4.63;;;14.30;99.90;;;;;;5086344;28;20200;-82
2022/06/28 03:17:00;;;;;;;8.77;5.30;;;14.40;99.90;;;;;;5083508;28;20232;-82
2022/06/28 03:19:27;;;;;;;9.40;4.43;;;14.40;99.90;;;;;;5082993;28;20202;-82
2022/06/28 03:21:54;;;;;;;6.90;4.67;;;14.40;99.90;;;;;;5083577;28;20198;-82
2022/06/28 03:24:21;;;;;;;7.20;4.77;;;14.30;99.90;;;;;;5085431;28;20276;-82
2022/06/28 03:26:48;;;;;;;10.13;5.07;;;14.40;99.90;;;;;;5082539;28;20196;-82
2022/06/28 03:29:15;;;;;;;5.73;5.03;;;14.30;99.90;;;;;;5079368;28;20293;-82
2022/06/28 03:31:42;;;;;;;6.50;4.83;;;14.30;99.90;;;;;;5086920;28;20253;-83
2022/06/28 03:34:09;;;;;;;6.70;4.93;;;14.30;99.90;;;;;;5088505;28;20284;-82
2022/06/28 03:36:36;;;;;;;6.60;5.00;;;14.30;99.90;;;;;;5103323;28;20655;-81
2022/06/28 03:39:03;;;;;;;5.90;5.23;;;14.30;99.90;;;;;;5084644;28;20274;-81
2022/06/28 03:41:30;;;;;;;8.43;5.50;;;14.30;99.90;;;;;;5082259;28;20201;-82
2022/06/28 03:43:56;;;;;;;7.77;6.03;;;14.30;99.90;;;;;;5083032;28;20245;-82
2022/06/28 03:46:23;;;;;;;7.80;5.50;;;14.40;99.90;;;;;;5065504;28;20232;-82
2022/06/28 03:48:50;;;;;;;7.07;6.33;;;14.30;99.90;;;;;;5083431;28;20586;-82
2022/06/28 03:51:17;;;;;;;8.47;5.40;;;14.20;99.90;;;;;;5081325;28;20199;-82
2022/06/28 03:53:44;;;;;;;6.87;6.20;;;14.20;99.90;;;;;;5084187;28;20235;-82
2022/06/28 03:56:11;;;;;;;6.27;5.43;;;14.30;99.90;;;;;;5088542;28;20202;-82
2022/06/28 03:58:38;;;;;;;8.33;5.70;;;14.20;99.90;;;;;;5087763;28;20226;-83
2022/06/28 04:01:05;;;;;;;6.13;5.30;;;14.30;99.90;;;;;;5087135;28;20252;-82
2022/06/28 04:03:32;;;;;;;6.17;5.57;;;14.20;99.90;;;;;;5087498;28;20194;-83
2022/06/28 04:05:59;;;;;;;6.00;5.40;;;14.20;99.90;;;;;;5083771;28;20675;-82
2022/06/28 04:08:26;;;;;;;7.90;5.17;;;14.30;99.90;;;;;;5086931;28;20195;-82
2022/06/28 04:11:13;;;;;;;6.80;4.90;;;14.20;99.90;;;;;;5088955;28;20273;-83
2022/06/28 04:13:44;;;;;;;9.20;5.20;;;14.10;99.90;;;;;;5088182;28;20199;-83
2022/06/28 04:16:12;;;;;;;9.73;6.03;;;13.90;99.90;;;;;;5085114;28;20715;-83
2022/06/28 04:18:40;;;;;;;7.97;5.03;;;13.90;99.90;;;;;;5087921;28;20208;-83
2022/06/28 04:21:09;;;;;;;8.63;5.63;;;13.80;99.90;;;;;;5086578;28;20230;-82
2022/06/28 04:23:36;;;;;;;8.57;5.20;;;14.00;99.90;;;;;;5088779;28;20307;-84
2022/06/28 04:26:03;;;;;;;6.43;5.07;;;14.10;99.90;;;;;;5088173;28;20244;-84
2022/06/28 04:28:30;;;;;;;5.10;4.60;;;13.90;99.90;;;;;;5090072;28;20200;-83
2022/06/28 04:30:58;;;;;;;6.03;4.77;;;14.10;99.90;;;;;;5088809;28;20214;-83
2022/06/28 04:33:25;;;;;;;5.40;4.67;;;14.00;99.90;;;;;;5086786;28;20261;-83
2022/06/28 04:35:52;;;;;;;7.33;5.20;;;14.00;99.90;;;;;;5086849;28;20226;-83
2022/06/28 04:38:19;;;;;;;9.00;4.70;;;14.10;99.90;;;;;;5086742;28;20750;-84
2022/06/28 04:40:50;;;;;;;9.80;4.67;;;14.20;99.90;;;;;;5085392;28;20197;-83
2022/06/28 04:43:17;;;;;;;8.00;5.27;;;14.20;99.90;;;;;;5089084;28;20543;-83
2022/06/28 04:45:44;;;;;;;5.63;4.93;;;14.00;99.90;;;;;;5081712;28;20210;-82
2022/06/28 04:48:11;;;;;;;7.53;4.97;;;14.10;99.90;;;;;;5085179;28;20243;-83
2022/06/28 04:50:38;;;;;;;9.20;5.10;;;14.20;99.90;;;;;;5083091;28;20208;-82
2022/06/28 04:53:05;;;;;;;7.23;4.83;;;14.10;99.90;;;;;;5084600;28;21059;-83
2022/06/28 04:55:32;;;;;;;8.17;5.67;;;14.20;99.90;;;;;;5084774;28;22102;-82
2022/06/28 04:57:59;;;;;;;9.10;5.30;;;14.30;99.90;;;;;;5083975;28;20206;-83
2022/06/28 05:00:28;;;;;;;7.17;5.13;;;14.40;99.90;;;;;;5084484;28;20649;-83
2022/06/28 05:03:15;;;;;;;7.37;5.17;;;14.20;99.90;;;;;;5084844;28;20207;-83
2022/06/28 05:05:42;;;;;;;8.93;5.40;;;14.30;99.90;;;;;;5081954;28;21129;-83
2022/06/28 05:08:08;;;;;;;5.83;4.40;;;14.20;99.90;;;;;;5086898;28;20708;-83
2022/06/28 05:10:35;;;;;;;10.10;5.00;;;14.50;99.90;;;;;;5085096;28;20544;-83
2022/06/28 05:13:02;;;;;;;10.03;4.90;;;14.70;99.90;;;;;;5085015;28;20212;-83
2022/06/28 05:15:29;;;;;;;6.77;4.47;;;14.70;99.90;;;;;;5091526;28;20539;-83
2022/06/28 05:17:56;;;;;;;6.27;4.50;;;14.70;99.90;;;;;;5088310;28;20576;-82
2022/06/28 05:20:23;;;;;;;7.10;4.83;;;14.80;24.80;;;;;;5084025;28;20548;-82
2022/06/28 05:22:50;;;;;;;6.07;4.10;;;14.80;99.90;;;;;;5083237;28;20220;-83
2022/06/28 05:25:17;;;;;;;6.43;4.87;;;14.80;99.00;;;;;;5087162;28;20199;-83
2022/06/28 05:27:44;;;;;;;6.40;4.60;;;14.90;12.00;;;;;;5087172;28;20249;-83
2022/06/28 05:30:11;;;;;;;6.27;4.20;;;15.20;87.40;;;;;;5087826;28;20309;-82
2022/06/28 05:32:38;;;;;;;7.53;4.47;;;15.10;1.00;;;;;;5086937;28;20319;-82
2022/06/28 05:35:06;;;;;;;6.53;4.20;;;15.10;1.00;;;;;;5101011;27;20224;-82
2022/06/28 05:37:33;;;;;;;6.53;3.93;;;15.30;1.00;;;;;;5086380;28;20272;-83
2022/06/28 05:40:01;;;;;;;7.93;4.40;;;15.00;1.00;;;;;;5089197;28;20197;-82
2022/06/28 05:42:28;;;;;;;4.60;4.20;;;15.10;1.00;;;;;;5085863;28;20345;-83
2022/06/28 05:44:54;;;;;;;10.47;4.20;;;15.40;1.00;;;;;;5084483;28;20571;-83
2022/06/28 05:47:23;;;;;;;5.17;3.70;;;15.40;99.90;;;;;;5084868;28;20272;-83
2022/06/28 05:49:51;;;;;;;8.97;4.53;;;15.20;1.00;;;;;;5085833;28;20207;-81
2022/06/28 05:52:18;;;;;;;9.97;4.17;;;15.30;99.90;;;;;;5083423;28;20208;-81
2022/06/28 05:54:44;;;;;;;6.80;4.10;;;15.20;1.00;;;;;;5087207;28;20237;-83
2022/06/28 05:57:11;;;;;;;7.87;4.00;;;15.30;46.70;;;;;;5086356;28;20220;-84
2022/06/28 05:59:38;;;;;;;11.27;4.20;;;15.30;1.00;;;;;;5080992;28;20299;-85
2022/06/28 06:02:06;;;;;;;10.40;3.53;;;15.30;1.00;;;;;;5080928;28;20200;-81
2022/06/28 06:04:33;;;;;;;9.07;3.90;;;15.40;1.00;;;;;;5083817;28;21458;-82
2022/06/28 06:07:00;;;;;;;7.27;3.37;;;15.50;1.00;;;;;;5083933;28;20208;-83
2022/06/28 06:09:27;;;;;;;7.60;3.70;;;15.50;1.00;;;;;;5084733;28;20222;-82
2022/06/28 06:11:54;;;;;;;9.97;3.80;;;15.60;1.00;;;;;;5085784;28;20214;-86
2022/06/28 06:14:23;;;;;;;9.17;3.70;;;15.80;1.00;;;;;;5085382;28;20224;-86
2022/06/28 06:16:52;;;;;;;10.43;4.27;;;15.70;1.00;;;;;;5103723;27;20223;-86
2022/06/28 06:19:19;;;;;;;7.43;3.60;;;15.80;99.90;;;;;;5086660;28;20205;-83
2022/06/28 06:21:46;;;;;;;11.47;3.57;;;16.00;1.00;;;;;;5085512;28;20201;-83
2022/06/28 06:24:13;;;;;;;6.90;3.73;;;16.20;1.00;;;;;;5090350;28;20258;-83
2022/06/28 06:26:41;;;;;;;10.97;3.67;;;16.10;99.90;;;;;;5092827;28;20209;-82
2022/06/28 06:29:08;;;;;;;9.53;3.40;;;16.20;1.00;;;;;;5099890;28;20194;-83
2022/06/28 06:31:35;;;;;;;6.57;3.63;;;16.10;1.00;;;;;;5093364;28;20283;-83
2022/06/28 06:34:02;;;;;;;9.97;3.67;;;16.40;1.00;;;;;;5093783;28;20213;-83
2022/06/28 06:36:29;;;;;;;9.57;3.17;;;16.60;99.90;;;;;;5095650;28;20228;-82
2022/06/28 06:38:55;;;;;;;11.07;3.90;;;16.80;1.00;;;;;;5087669;28;20204;-83
2022/06/28 06:41:22;;;;;;;9.10;3.30;;;16.70;1.00;;;;;;5091483;28;20224;-83
2022/06/28 06:43:49;;;;;;;6.63;3.10;;;17.10;1.00;;;;;;5088691;28;20312;-83
2022/06/28 06:46:18;;;;;;;9.90;3.37;;;17.30;1.00;;;;;;5072880;28;20188;-83
2022/06/28 06:48:50;;;;;;;9.13;2.97;;;17.30;1.00;;;;;;5089979;28;20297;-83
2022/06/28 06:51:17;;;;;;;8.17;2.97;;;17.50;1.00;;;;;;5088079;28;20202;-83
2022/06/28 06:53:44;;;;;;;9.73;3.20;;;17.60;1.00;;;;;;5089720;28;20316;-84
2022/06/28 06:56:11;;;;;;;9.70;2.33;;;17.80;52.40;;;;;;5088127;28;20210;-82
2022/06/28 06:58:38;;;;;;;8.40;1.93;;;17.80;1.00;;;;;;5081749;28;20245;-83
2022/06/28 07:01:05;;;;;;;6.43;1.90;;;17.80;1.00;;;;;;5081615;28;20194;-82
2022/06/28 07:03:53;;;;;;;7.17;2.20;;;18.00;99.90;;;;;;5061866;28;20252;-83
2022/06/28 07:06:20;;;;;;;10.00;2.60;;;18.00;99.90;;;;;;5088490;28;20219;-85
2022/06/28 07:08:47;;;;;;;10.40;1.80;;;18.40;1.00;;;;;;5085563;28;20195;-84
2022/06/28 07:11:14;;;;;;;5.40;1.40;;;18.60;1.00;;;;;;5091685;28;20608;-84
2022/06/28 07:13:41;;;;;;;7.03;1.73;;;18.50;1.00;;;;;;5081081;28;20200;-83
2022/06/28 07:16:08;;;;;;;6.10;1.80;;;18.10;1.00;;;;;;5091250;28;20225;-83
2022/06/28 07:18:35;;;;;;;8.33;2.13;;;18.50;1.00;;;;;;5090203;28;20214;-84
2022/06/28 07:21:02;;;;;;;3.50;1.60;;;18.70;99.90;;;;;;5086668;28;20199;-83
2022/06/28 07:23:28;;;;;;;7.50;2.77;;;18.50;1.00;;;;;;5085869;28;20226;-85
2022/06/28 07:25:56;;;;;;;5.37;1.93;;;18.60;1.00;;;;;;5082190;28;20197;-83
2022/06/28 07:28:23;;;;;;;7.93;2.77;;;18.80;1.00;;;;;;5085742;28;20343;-82
2022/06/28 07:30:50;;;;;;;5.90;2.03;;;18.80;1.00;;;;;;5089028;28;20207;-83
2022/06/28 07:33:17;;;;;;;9.23;2.47;;;19.30;6.60;;;;;;5089682;28;20208;-84
2022/06/28 07:35:44;;;;;;;7.80;1.73;;;19.50;1.00;;;;;;5098208;28;20260;-84
2022/06/28 07:38:11;;;;;;;7.53;1.97;;;19.70;99.90;;;;;;5094650;28;20279;-85
2022/06/28 07:40:39;;;;;;;7.13;1.73;;;19.80;99.90;;;;;;5087911;28;20223;-83
2022/06/28 07:43:06;;;;;;;8.90;2.47;;;19.60;99.90;;;;;;5090826;28;20209;-83
2022/06/28 07:45:36;;;;;;;4.33;1.60;;;19.60;99.90;;;;;;5084716;28;20192;-84
2022/06/28 07:48:04;;;;;;;10.83;1.80;;;19.90;99.90;;;;;;5089926;28;20223;-84
2022/06/28 07:53:17;;;;;;;6.60;2.20;;;19.90;1.00;;;;;;5092412;28;20571;-84
2022/06/28 07:55:44;;;;;;;5.37;1.70;;;20.10;1.00;;;;;;5091065;28;21143;-85
2022/06/28 07:58:11;;;;;;;7.83;1.90;;;20.10;1.00;;;;;;5085615;28;20955;-84
2022/06/28 08:00:38;;;;;;;6.03;2.33;;;20.20;1.00;;;;;;5087374;28;20224;-83
2022/06/28 08:03:05;;;;;;;8.87;1.40;;;20.50;1.00;;;;;;5091362;28;20204;-83
2022/06/28 08:05:32;;;;;;;5.73;1.50;;;20.70;1.00;;;;;;5090995;28;20929;-82
2022/06/28 08:07:59;;;;;;;8.63;1.50;;;20.50;1.00;;;;;;5089352;28;20215;-82
2022/06/28 08:10:26;;;;;;;8.77;1.60;;;20.50;1.00;;;;;;5088310;28;20198;-82
2022/06/28 08:12:52;;;;;;;8.20;1.80;;;20.20;1.00;;;;;;5086689;28;20248;-83
2022/06/28 08:15:19;;;;;;;3.70;1.20;;;20.60;1.00;;;;;;5089037;28;20293;-83
2022/06/28 08:17:46;;;;;;;4.37;1.33;;;20.90;99.90;;;;;;5091332;28;20330;-81
2022/06/28 08:20:13;;;;;;;7.70;1.70;;;21.10;99.90;;;;;;5097927;28;20808;-80
2022/06/28 08:22:40;;;;;;;5.07;1.50;;;21.00;1.00;;;;;;5092519;28;20210;-80
2022/06/28 08:25:09;;;;;;;2.70;1.20;;;21.30;99.90;;;;;;5087789;28;20190;-83
2022/06/28 08:27:36;;;;;;;5.73;1.57;;;21.30;99.90;;;;;;5089892;28;20236;-84
2022/06/28 08:30:05;;;;;;;4.40;1.37;;;21.40;99.90;;;;;;5089566;28;21107;-80
2022/06/28 08:32:32;;;;;;;1.90;1.03;;;21.60;99.90;;;;;;5086553;28;20384;-79
2022/06/28 08:34:59;;;;;;;6.20;1.40;;;21.60;99.90;;;;;;5087479;28;20664;-80
2022/06/28 08:37:25;;;;;;;4.80;1.43;;;21.50;99.90;;;;;;5092124;28;20301;-79
2022/06/28 08:39:52;;;;;;;5.57;1.03;;;21.60;99.90;;;;;;5086044;28;20198;-79
2022/06/28 08:42:25;;;;;;;8.17;1.37;;;21.90;99.90;;;;;;5084048;28;20945;-80
2022/06/28 08:44:53;;;;;;;4.33;1.30;;;21.50;1.00;;;;;;5085028;28;20291;-79
2022/06/28 08:47:21;;;;;;;2.53;1.10;;;21.60;69.40;;;;;;5083834;28;20218;-80
2022/06/28 08:49:48;;;;;;;4.30;1.60;;;21.60;99.90;;;;;;5089613;28;20234;-80
2022/06/28 08:52:23;;;;;;;3.93;1.30;;;21.90;99.90;;;;;;5083488;28;20214;-79
2022/06/28 08:54:51;;;;;;;5.00;1.40;;;22.40;28.20;;;;;;5088317;28;21221;-80
2022/06/28 08:57:19;;;;;;;5.10;1.43;;;22.40;1.00;;;;;;5087955;28;21109;-80
2022/06/28 09:00:36;;;;;;;4.35;1.30;;;22.70;27.00;;;;;;5080585;27;20488;-52
2022/06/28 09:03:03;;;;;;;4.20;1.13;;;23.20;99.90;;;;;;5072523;28;20256;-50
2022/06/28 09:05:30;;;;;;;5.93;1.60;;;24.60;1.00;;;;;;5078365;28;20293;-52
2022/06/28 09:07:58;;;;;;;3.90;1.03;;;25.30;1.00;;;;;;5078430;28;20261;-51
2022/06/28 09:10:26;;;;;;;2.90;1.00;;;25.60;1.00;;;;;;5078626;28;20572;-52
2022/06/28 09:13:15;;;;;;;1.43;0.93;;;25.50;1.00;;;;;;5074218;28;20291;-50
2022/06/28 09:15:56;;;;;;;3.87;1.10;;;24.80;1.00;;;;;;5077027;28;20294;-53
2022/06/28 09:18:27;;;;;;;2.77;1.20;;;24.50;1.00;;;;;;5074297;28;20207;-52
2022/06/28 09:20:56;;;;;;;4.50;1.60;;;24.60;1.00;;;;;;5078107;28;20285;-50
2022/06/28 09:23:24;;;;;;;3.27;1.00;;;25.90;1.00;;;;;;5078258;28;20634;-50
2022/06/28 09:25:53;;;;;;;3.17;1.50;;;26.50;1.00;;;;;;5078981;28;20219;-51
2022/06/28 09:28:28;;;;;;;3.17;0.90;;;25.10;1.00;;;;;;5072837;28;20657;-50
2022/06/28 09:31:19;;;;;;;3.63;0.90;;;25.00;1.00;;;;;;5072921;28;20205;-52
2022/06/28 09:34:08;;;;;;;1.90;1.13;;;25.10;1.00;;;;;;5076259;28;20684;-54
2022/06/28 09:36:41;;;;;;;2.70;1.00;;;24.50;1.00;;;;;;5078972;28;20598;-53
2022/06/28 09:39:17;;;;;;;1.97;1.03;;;25.00;1.00;;;;;;5075742;28;20289;-51
2022/06/28 09:41:49;;;;;;;2.00;0.80;;;25.80;1.00;;;;;;5077177;28;20432;-49
2022/06/28 09:44:36;;;;;;;2.50;0.90;;;26.00;1.00;;;;;;5079881;28;20198;-52
2022/06/28 09:47:06;;;;;;;3.87;0.80;;;25.20;1.00;;;;;;5080673;28;20200;-50
2022/06/28 09:49:37;;;;;;;3.80;0.77;;;24.40;1.00;;;;;;5079748;28;20641;-52
2022/06/28 09:52:04;;;;;;;2.13;0.87;;;25.00;1.00;;;;;;5082393;28;20218;-50
2022/06/28 09:54:33;;;;;;;4.43;0.97;;;25.30;1.00;;;;;;5081252;28;20226;-54
2022/06/28 09:57:01;;;;;;;4.30;1.00;;;24.20;1.00;;;;;;5079856;28;20665;-52
2022/06/28 09:59:28;;;;;;;3.90;1.10;;;24.70;1.00;;;;;;5078621;28;20582;-53
2022/06/28 10:01:56;;;;;;;3.87;0.80;;;23.60;1.00;;;;;;5076041;28;21925;-52
2022/06/28 10:04:25;;;;;;;1.63;0.80;;;23.70;1.00;;;;;;5076436;28;20294;-54
2022/06/28 10:06:52;;;;;;;1.00;0.70;;;23.30;1.00;;;;;;5079061;28;20276;-51
2022/06/28 10:09:21;;;;;;;1.27;0.90;;;23.50;1.00;;;;;;5077505;28;20232;-52
2022/06/28 10:17:39;;;;;;;2.17;0.80;;;23.80;1.00;;;;;;5061502;28;20681;-52
2022/06/28 10:20:10;;;;;;;4.03;0.80;;;24.10;1.00;;;;;;5065248;28;20357;-53
2022/06/28 10:22:37;;;;;;;3.20;1.13;;;24.20;1.00;;;;;;5068214;28;20210;-53
2022/06/28 10:25:22;;;;;;;1.40;0.70;;;23.80;1.00;;;;;;5065170;28;20199;-53
2022/06/28 10:27:50;;;;;;;0.90;0.60;;;24.00;1.00;;;;;;5063967;28;20207;-52
2022/06/28 10:30:23;;;;;;;4.37;1.03;;;23.60;1.00;;;;;;5063425;28;20252;-51
2022/06/28 10:32:51;;;;;;;2.57;0.90;;;24.00;1.00;;;;;;5063994;28;20238;-53
2022/06/28 10:35:36;;;;;;;3.33;0.70;;;23.90;1.00;;;;;;5063148;28;20213;-53
2022/06/28 10:38:09;;;;;;;1.53;0.57;;;24.10;1.00;;;;;;5062822;28;20208;-52
2022/06/28 10:40:42;;;;;;;2.20;0.73;;;24.50;1.00;;;;;;5064772;28;20223;-50
2022/06/28 10:43:35;;;;;;;2.40;0.87;;;24.80;1.00;;;;;;5064308;28;20242;-52
2022/06/28 10:46:07;;;;;;;3.63;0.90;;;24.80;1.00;;;;;;5063486;28;20206;-55
2022/06/28 10:48:49;;;;;;;3.97;0.80;;;24.00;1.00;;;;;;5064090;28;20204;-50
2022/06/28 10:51:18;;;;;;;2.80;0.80;;;24.00;1.00;;;;;;5064298;28;20199;-50
2022/06/28 10:53:57;;;;;;;1.83;0.73;;;24.40;1.00;;;;;;5067171;28;20253;-51
2022/06/28 10:56:25;;;;;;;2.23;0.73;;;25.20;1.00;;;;;;5063368;28;20199;-50
2022/06/28 10:59:02;;;;;;;2.20;1.00;;;24.20;1.00;;;;;;5061210;28;20760;-54
2022/06/28 11:01:44;;;;;;;2.17;0.80;;;24.40;1.00;;;;;;5063846;28;20645;-51
2022/06/28 11:04:18;;;;;;;2.87;0.73;;;25.10;1.00;;;;;;5064409;28;20643;-54
2022/06/28 11:06:52;;;;;;;3.60;1.13;;;24.60;1.00;;;;;;5065096;28;20423;-52
2022/06/28 11:09:44;;;;;;;2.75;0.90;;;24.70;1.00;;;;;;5063388;28;20529;-53
2022/06/28 11:12:15;;;;;;;2.70;0.80;;;23.90;1.00;;;;;;5060571;28;20528;-52
2022/06/28 11:14:55;;;;;;;1.53;0.73;;;23.70;1.00;;;;;;5063567;28;20642;-50
2022/06/28 11:17:25;;;;;;;2.23;0.70;;;24.10;1.00;;;;;;5062814;28;20217;-52
2022/06/28 11:19:55;;;;;;;2.27;0.83;;;23.80;1.00;;;;;;5061783;28;20532;-52
2022/06/28 11:22:33;;;;;;;0.83;0.80;;;24.10;1.00;;;;;;5062434;28;20255;-53
2022/06/28 11:25:02;;;;;;;2.57;1.00;;;23.40;1.00;;;;;;5063111;28;20292;-52
2022/06/28 11:27:30;;;;;;;1.23;0.90;;;23.80;1.00;;;;;;5064438;28;20233;-52
2022/06/28 11:30:02;;;;;;;1.70;0.80;;;24.10;1.00;;;;;;5058365;28;20211;-52
2022/06/28 11:32:31;;;;;;;3.47;0.80;;;24.70;1.00;;;;;;5061154;28;20235;-52
2022/06/28 11:35:06;;;;;;;3.47;0.97;;;25.00;1.00;;;;;;5064554;28;20210;-52
2022/06/28 11:37:58;;;;;;;1.43;0.70;;;24.90;1.00;;;;;;5063338;28;20301;-52
2022/06/28 11:40:28;;;;;;;1.67;0.90;;;24.80;1.00;;;;;;5065623;28;20288;-53
2022/06/28 11:43:08;;;;;;;2.87;1.10;;;24.80;1.00;;;;;;5061531;28;20203;-54
2022/06/28 11:45:41;;;;;;;4.77;0.83;;;24.80;1.00;;;;;;5059654;28;20211;-53
2022/06/28 11:48:22;;;;;;;1.70;0.70;;;24.80;1.00;;;;;;5062397;28;20289;-52
2022/06/28 11:50:54;;;;;;;2.23;0.63;;;25.00;1.00;;;;;;5067516;28;20634;-53
2022/06/28 11:53:22;;;;;;;2.07;0.80;;;25.50;1.00;;;;;;5065826;28;20549;-52
2022/06/28 11:55:50;;;;;;;4.77;1.10;;;25.50;1.00;;;;;;5067080;28;20234;-53
2022/06/28 11:58:37;;;;;;;2.20;0.93;;;25.80;1.00;;;;;;5067213;28;20297;-53
2022/06/28 12:01:16;;;;;;;3.93;0.97;;;25.10;1.00;;;;;;5065701;28;20219;-52
2022/06/28 12:03:42;;;;;;;4.60;0.90;;;24.40;1.00;;;;;;5067043;28;20602;-54
2022/06/28 12:06:25;;;;;;;1.93;1.00;;;24.10;1.00;;;;;;5065486;28;20261;-52
2022/06/28 12:09:04;;;;;;;4.10;1.73;;;24.50;1.00;;;;;;5067053;28;20203;-52
2022/06/28 12:11:34;;;;;;;2.57;0.70;;;25.20;1.00;;;;;;5064824;28;20281;-53
2022/06/28 12:14:16;;;;;;;2.03;0.90;;;25.80;1.00;;;;;;5062714;28;20199;-53
2022/06/28 12:16:56;;;;;;;1.63;0.70;;;25.60;1.00;;;;;;5063387;28;20627;-53
2022/06/28 12:19:33;;;;;;;1.90;0.90;;;25.70;1.00;;;;;;5063440;28;20368;-52
2022/06/28 12:22:16;;;;;;;4.50;1.50;;;25.60;1.00;;;;;;5059340;28;20286;-53
2022/06/28 12:24:51;;;;;;;2.50;1.00;;;25.30;1.00;;;;;;5058548;28;20199;-52
2022/06/28 12:27:27;;;;;;;3.30;0.70;;;25.30;1.00;;;;;;5061487;28;20233;-52
2022/06/28 12:29:59;;;;;;;3.37;0.80;;;25.70;1.00;;;;;;5057865;28;20676;-52
2022/06/28 12:32:27;;;;;;;2.23;0.67;;;25.40;1.00;;;;;;5062457;28;20245;-54
2022/06/28 12:35:15;;;;;;;2.90;1.03;;;25.50;1.00;;;;;;5062776;28;20515;-52
2022/06/28 12:37:42;;;;;;;3.43;1.40;;;24.60;1.00;;;;;;5061208;28;20211;-52
2022/06/28 12:40:10;;;;;;;1.10;0.87;;;24.00;1.00;;;;;;5060364;28;20288;-53
2022/06/28 12:42:38;;;;;;;3.13;1.20;;;24.00;1.00;;;;;;5057226;28;20199;-55
2022/06/28 12:45:06;;;;;;;2.00;0.80;;;24.80;1.00;;;;;;5054780;28;20654;-54
2022/06/28 12:47:36;;;;;;;3.30;0.80;;;25.50;1.00;;;;;;5062275;28;20633;-53
2022/06/28 12:50:05;;;;;;;2.30;0.90;;;25.10;1.00;;;;;;5060874;28;20245;-53
2022/06/28 12:52:35;;;;;;;4.30;1.00;;;25.10;1.00;;;;;;5052655;28;20211;-53
2022/06/28 12:55:03;;;;;;;1.97;0.80;;;25.40;1.00;;;;;;5056717;28;20239;-54
2022/06/28 12:57:30;;;;;;;3.47;1.13;;;25.20;1.00;;;;;;5058761;28;20296;-54
2022/06/28 12:59:57;;;;;;;1.27;0.90;;;25.10;1.00;;;;;;5049003;28;20724;-55
2022/06/28 13:02:24;;;;;;;2.20;0.80;;;25.20;1.00;;;;;;5037331;28;20638;-51
2022/06/28 13:04:52;;;;;;;2.47;0.83;;;25.40;1.00;;;;;;5052870;28;20673;-53
2022/06/28 13:07:22;;;;;;;4.37;2.30;;;25.40;1.00;;;;;;5057671;28;20291;-53
2022/06/28 13:09:50;;;;;;;4.73;0.90;;;25.50;1.00;;;;;;5060130;28;20211;-54
2022/06/28 13:12:17;;;;;;;2.60;0.90;;;25.80;1.00;;;;;;5052092;28;20710;-54
2022/06/28 13:14:53;;;;;;;1.40;1.27;;;25.60;1.00;;;;;;5050036;28;20222;-53
2022/06/28 13:17:22;;;;;;;4.43;1.37;;;25.50;1.00;;;;;;5052870;28;20226;-54
2022/06/28 13:19:49;;;;;;;1.87;0.80;;;25.60;1.00;;;;;;5051343;28;20211;-53